Webcam

2019/11/13 21:20 EBBR 132120Z 17010KT 9999 SCT036 06/04 Q0999 NOSIG

Webcam

--- Refresh now ---